Terminal Aerodrome Forecast
Issued by NWS Louisville, KY

Home | Current Version | Previous Version | Text Only | Print | Product List | Glossary On
Versions: 1 2 3 4 5 6 7 8 9 10 11 12 13 14 15 16 17 18 19 20 21 22
000
FTUS43 KLMK 281124
TAFSDF
TAF
KSDF 281124Z 2812/2918 VRB05KT P6SM VCSH SCT010 BKN020
      TEMPO 2812/2816 5SM -SHRA BR BKN010
     FM281600 VRB05KT 6SM BR VCSH SCT011 BKN025
      TEMPO 2816/2820 3SM SHRA BR BKN011
     FM282100 23005KT P6SM SCT025 BKN035 PROB30 2901/2907 3SM -SHRA
      BKN025=

USA.gov is the U.S. government's official web portal to all federal, state and local government web resources and services.